sensor_id;sensor_type;location;lat;lon;timestamp;pressure;altitude;pressure_sealevel;temperature;humidity
41040;BME280;48586;50.122;18.972;2024-01-30T00:02:41;100436.63;;;-1.87;55.46
41040;BME280;48586;50.122;18.972;2024-01-30T00:05:51;100433.91;;;-1.82;55.80
41040;BME280;48586;50.122;18.972;2024-01-30T00:08:55;100413.06;;;-1.90;55.96
41040;BME280;48586;50.122;18.972;2024-01-30T00:12:01;100427.78;;;-1.83;55.42
41040;BME280;48586;50.122;18.972;2024-01-30T00:15:06;100424.25;;;-1.78;55.09
41040;BME280;48586;50.122;18.972;2024-01-30T00:18:14;100429.41;;;-1.74;55.32
41040;BME280;48586;50.122;18.972;2024-01-30T00:21:26;100415.34;;;-1.71;55.51
41040;BME280;48586;50.122;18.972;2024-01-30T00:24:31;100416.22;;;-1.69;55.78
41040;BME280;48586;50.122;18.972;2024-01-30T00:27:36;100433.56;;;-1.59;55.23
41040;BME280;48586;50.122;18.972;2024-01-30T00:30:42;100426.44;;;-1.53;55.17
41040;BME280;48586;50.122;18.972;2024-01-30T00:33:48;100419.28;;;-1.44;54.66
41040;BME280;48586;50.122;18.972;2024-01-30T00:36:58;100421.91;;;-1.44;54.08
41040;BME280;48586;50.122;18.972;2024-01-30T00:40:11;100424.63;;;-1.49;54.37
41040;BME280;48586;50.122;18.972;2024-01-30T00:43:21;100422.88;;;-1.50;54.37
41040;BME280;48586;50.122;18.972;2024-01-30T00:46:26;100420.41;;;-1.58;53.66
41040;BME280;48586;50.122;18.972;2024-01-30T00:49:32;100420.50;;;-1.64;53.94
41040;BME280;48586;50.122;18.972;2024-01-30T00:52:40;100424.91;;;-1.66;54.10
41040;BME280;48586;50.122;18.972;2024-01-30T00:55:48;100415.28;;;-1.67;53.96
41040;BME280;48586;50.122;18.972;2024-01-30T00:58:54;100410.09;;;-1.71;54.66
41040;BME280;48586;50.122;18.972;2024-01-30T01:02:00;100415.38;;;-1.73;54.89
41040;BME280;48586;50.122;18.972;2024-01-30T01:05:06;100402.28;;;-1.74;54.91
41040;BME280;48586;50.122;18.972;2024-01-30T01:08:15;100368.41;;;-1.90;55.17
41040;BME280;48586;50.122;18.972;2024-01-30T01:11:19;100407.38;;;-1.65;54.47
41040;BME280;48586;50.122;18.972;2024-01-30T01:14:27;100398.56;;;-1.63;54.74
41040;BME280;48586;50.122;18.972;2024-01-30T01:17:33;100403.81;;;-1.61;54.67
41040;BME280;48586;50.122;18.972;2024-01-30T01:20:40;100396.81;;;-1.62;55.23
41040;BME280;48586;50.122;18.972;2024-01-30T01:23:48;100387.25;;;-1.65;54.70
41040;BME280;48586;50.122;18.972;2024-01-30T01:26:53;100382.78;;;-1.61;54.60
41040;BME280;48586;50.122;18.972;2024-01-30T01:29:58;100382.78;;;-1.61;54.53
41040;BME280;48586;50.122;18.972;2024-01-30T01:33:04;100379.34;;;-1.65;54.82
41040;BME280;48586;50.122;18.972;2024-01-30T01:36:11;100375.75;;;-1.58;54.67
41040;BME280;48586;50.122;18.972;2024-01-30T01:39:23;100379.13;;;-1.53;55.05
41040;BME280;48586;50.122;18.972;2024-01-30T01:42:29;100378.09;;;-1.44;54.54
41040;BME280;48586;50.122;18.972;2024-01-30T01:45:35;100382.41;;;-1.38;54.27
41040;BME280;48586;50.122;18.972;2024-01-30T01:48:41;100374.44;;;-1.35;53.77
41040;BME280;48586;50.122;18.972;2024-01-30T01:51:48;100376.06;;;-1.30;54.02
41040;BME280;48586;50.122;18.972;2024-01-30T01:54:57;100374.25;;;-1.25;53.47
41040;BME280;48586;50.122;18.972;2024-01-30T01:58:04;100378.59;;;-1.24;52.82
41040;BME280;48586;50.122;18.972;2024-01-30T02:01:11;100380.34;;;-1.23;52.97
41040;BME280;48586;50.122;18.972;2024-01-30T02:04:19;100375.97;;;-1.24;52.75
41040;BME280;48586;50.122;18.972;2024-01-30T02:07:24;100364.72;;;-1.32;53.15
41040;BME280;48586;50.122;18.972;2024-01-30T02:10:32;100361.22;;;-1.31;53.14
41040;BME280;48586;50.122;18.972;2024-01-30T02:13:38;100360.38;;;-1.33;52.68
41040;BME280;48586;50.122;18.972;2024-01-30T02:16:46;100363.94;;;-1.35;53.11
41040;BME280;48586;50.122;18.972;2024-01-30T02:19:52;100363.94;;;-1.35;53.15
41040;BME280;48586;50.122;18.972;2024-01-30T02:23:02;100368.22;;;-1.31;52.69
41040;BME280;48586;50.122;18.972;2024-01-30T02:26:07;100369.09;;;-1.31;52.68
41040;BME280;48586;50.122;18.972;2024-01-30T02:29:15;100370.03;;;-1.33;52.52
41040;BME280;48586;50.122;18.972;2024-01-30T02:32:21;100367.56;;;-1.42;52.26
41040;BME280;48586;50.122;18.972;2024-01-30T02:35:27;100361.50;;;-1.46;52.25
41040;BME280;48586;50.122;18.972;2024-01-30T02:38:36;100370.41;;;-1.55;52.56
41040;BME280;48586;50.122;18.972;2024-01-30T02:41:43;100375.81;;;-1.62;52.72
41040;BME280;48586;50.122;18.972;2024-01-30T02:44:48;100371.56;;;-1.69;52.82
41040;BME280;48586;50.122;18.972;2024-01-30T02:47:54;100370.81;;;-1.77;52.95
41040;BME280;48586;50.122;18.972;2024-01-30T02:51:01;100364.81;;;-1.84;52.66
41040;BME280;48586;50.122;18.972;2024-01-30T02:54:10;100346.88;;;-2.10;52.76
41040;BME280;48586;50.122;18.972;2024-01-30T02:57:14;100367.78;;;-2.05;52.93
41040;BME280;48586;50.122;18.972;2024-01-30T03:00:20;100363.53;;;-2.14;53.37
41040;BME280;48586;50.122;18.972;2024-01-30T03:03:24;100366.28;;;-2.20;53.36
41040;BME280;48586;50.122;18.972;2024-01-30T03:06:30;100361.13;;;-2.28;53.34
41040;BME280;48586;50.122;18.972;2024-01-30T03:09:37;100359.50;;;-2.35;53.53
41040;BME280;48586;50.122;18.972;2024-01-30T03:12:42;100362.28;;;-2.47;53.58
41040;BME280;48586;50.122;18.972;2024-01-30T03:15:47;100362.38;;;-2.52;53.88
41040;BME280;48586;50.122;18.972;2024-01-30T03:18:52;100362.50;;;-2.61;53.86
41040;BME280;48586;50.122;18.972;2024-01-30T03:21:57;100351.34;;;-2.75;53.99
41040;BME280;48586;50.122;18.972;2024-01-30T03:25:06;100370.59;;;-2.76;53.84
41040;BME280;48586;50.122;18.972;2024-01-30T03:28:11;100362.81;;;-2.84;53.85
41040;BME280;48586;50.122;18.972;2024-01-30T03:31:17;100361.16;;;-2.92;54.23
41040;BME280;48586;50.122;18.972;2024-01-30T03:34:22;100361.25;;;-2.99;54.46
41040;BME280;48586;50.122;18.972;2024-01-30T03:37:27;100356.00;;;-2.99;54.60
41040;BME280;48586;50.122;18.972;2024-01-30T03:40:34;100356.84;;;-2.98;55.02
41040;BME280;48586;50.122;18.972;2024-01-30T03:43:40;100355.13;;;-2.98;54.48
41040;BME280;48586;50.122;18.972;2024-01-30T03:46:45;100351.59;;;-2.95;54.48
41040;BME280;48586;50.122;18.972;2024-01-30T03:49:50;100345.47;;;-2.94;55.80
41040;BME280;48586;50.122;18.972;2024-01-30T03:52:55;100341.97;;;-2.93;55.02
41040;BME280;48586;50.122;18.972;2024-01-30T03:56:03;100357.66;;;-2.91;57.28
41040;BME280;48586;50.122;18.972;2024-01-30T03:59:08;100360.16;;;-2.81;56.85
41040;BME280;48586;50.122;18.972;2024-01-30T04:02:13;100352.94;;;-2.67;55.88
41040;BME280;48586;50.122;18.972;2024-01-30T04:05:19;100358.91;;;-2.54;55.81
41040;BME280;48586;50.122;18.972;2024-01-30T04:08:24;100352.66;;;-2.47;55.76
41040;BME280;48586;50.122;18.972;2024-01-30T04:11:31;100349.09;;;-2.41;55.88
41040;BME280;48586;50.122;18.972;2024-01-30T04:14:38;100350.69;;;-2.31;55.33
41040;BME280;48586;50.122;18.972;2024-01-30T04:17:43;100348.84;;;-2.23;55.62
41040;BME280;48586;50.122;18.972;2024-01-30T04:20:48;100361.84;;;-2.17;55.86
41040;BME280;48586;50.122;18.972;2024-01-30T04:23:53;100352.09;;;-2.08;55.61
41040;BME280;48586;50.122;18.972;2024-01-30T04:27:01;100335.50;;;-2.11;55.38
41040;BME280;48586;50.122;18.972;2024-01-30T04:30:07;100343.97;;;-1.95;55.20
41040;BME280;48586;50.122;18.972;2024-01-30T04:33:12;100346.63;;;-1.96;55.11
41040;BME280;48586;50.122;18.972;2024-01-30T04:36:19;100349.34;;;-2.01;55.40
41040;BME280;48586;50.122;18.972;2024-01-30T04:39:24;100345.88;;;-2.01;55.19
41040;BME280;48586;50.122;18.972;2024-01-30T04:42:31;100347.63;;;-2.02;55.09
41040;BME280;48586;50.122;18.972;2024-01-30T04:45:37;100341.38;;;-1.96;54.94
41040;BME280;48586;50.122;18.972;2024-01-30T04:48:41;100346.69;;;-1.99;55.09
41040;BME280;48586;50.122;18.972;2024-01-30T04:51:47;100346.91;;;-2.13;55.54
41040;BME280;48586;50.122;18.972;2024-01-30T04:54:51;100353.13;;;-2.19;55.96
41040;BME280;48586;50.122;18.972;2024-01-30T04:57:59;100341.72;;;-2.16;56.04
41040;BME280;48586;50.122;18.972;2024-01-30T05:01:04;100341.66;;;-2.13;55.90
41040;BME280;48586;50.122;18.972;2024-01-30T05:04:09;100343.28;;;-2.06;55.71
41040;BME280;48586;50.122;18.972;2024-01-30T05:07:14;100344.09;;;-2.02;55.39
41040;BME280;48586;50.122;18.972;2024-01-30T05:10:20;100348.34;;;-1.94;55.30
41040;BME280;48586;50.122;18.972;2024-01-30T05:13:27;100345.59;;;-1.86;54.97
41040;BME280;48586;50.122;18.972;2024-01-30T05:16:33;100341.09;;;-1.79;54.82
41040;BME280;48586;50.122;18.972;2024-01-30T05:19:37;100341.06;;;-1.78;54.66
41040;BME280;48586;50.122;18.972;2024-01-30T05:22:44;100347.13;;;-1.74;54.50
41040;BME280;48586;50.122;18.972;2024-01-30T05:25:48;100343.56;;;-1.72;54.46
41040;BME280;48586;50.122;18.972;2024-01-30T05:28:56;100340.94;;;-1.70;54.20
41040;BME280;48586;50.122;18.972;2024-01-30T05:32:01;100326.25;;;-1.81;53.86
41040;BME280;48586;50.122;18.972;2024-01-30T05:35:07;100335.78;;;-1.76;53.90
41040;BME280;48586;50.122;18.972;2024-01-30T05:38:12;100325.34;;;-1.79;53.71
41040;BME280;48586;50.122;18.972;2024-01-30T05:41:17;100347.00;;;-1.67;53.60
41040;BME280;48586;50.122;18.972;2024-01-30T05:44:24;100337.44;;;-1.69;53.70
41040;BME280;48586;50.122;18.972;2024-01-30T05:47:29;100348.69;;;-1.64;53.04
41040;BME280;48586;50.122;18.972;2024-01-30T05:50:34;100343.47;;;-1.66;53.21
41040;BME280;48586;50.122;18.972;2024-01-30T05:53:40;100351.41;;;-1.67;52.76
41040;BME280;48586;50.122;18.972;2024-01-30T05:56:45;100344.50;;;-1.74;53.17
41040;BME280;48586;50.122;18.972;2024-01-30T05:59:54;100346.28;;;-1.76;53.51
41040;BME280;48586;50.122;18.972;2024-01-30T06:02:59;100352.41;;;-1.76;53.17
41040;BME280;48586;50.122;18.972;2024-01-30T06:06:05;100343.00;;;-1.88;51.94
41040;BME280;48586;50.122;18.972;2024-01-30T06:09:11;100353.66;;;-1.97;51.42
41040;BME280;48586;50.122;18.972;2024-01-30T06:12:18;100351.09;;;-2.03;51.42
41040;BME280;48586;50.122;18.972;2024-01-30T06:15:25;100357.31;;;-2.07;51.70
41040;BME280;48586;50.122;18.972;2024-01-30T06:18:33;100352.94;;;-2.06;52.41
41040;BME280;48586;50.122;18.972;2024-01-30T06:21:38;100348.53;;;-2.06;51.77
41040;BME280;48586;50.122;18.972;2024-01-30T06:24:44;100348.63;;;-2.11;51.96
41040;BME280;48586;50.122;18.972;2024-01-30T06:27:50;100346.06;;;-2.15;51.67
41040;BME280;48586;50.122;18.972;2024-01-30T06:31:00;100350.66;;;-2.28;52.09
41040;BME280;48586;50.122;18.972;2024-01-30T06:34:07;100363.91;;;-2.37;52.08
41040;BME280;48586;50.122;18.972;2024-01-30T06:37:15;100363.09;;;-2.41;52.02
41040;BME280;48586;50.122;18.972;2024-01-30T06:40:20;100356.09;;;-2.40;52.40
41040;BME280;48586;50.122;18.972;2024-01-30T06:43:28;100364.75;;;-2.33;52.68
41040;BME280;48586;50.122;18.972;2024-01-30T06:46:36;100356.91;;;-2.38;52.73
41040;BME280;48586;50.122;18.972;2024-01-30T06:49:43;100357.00;;;-2.43;52.77
41040;BME280;48586;50.122;18.972;2024-01-30T06:52:49;100355.31;;;-2.48;53.17
41040;BME280;48586;50.122;18.972;2024-01-30T06:55:55;100359.72;;;-2.50;53.33
41040;BME280;48586;50.122;18.972;2024-01-30T06:59:02;100352.78;;;-2.53;53.05
41040;BME280;48586;50.122;18.972;2024-01-30T07:02:11;100358.06;;;-2.54;53.39
41040;BME280;48586;50.122;18.972;2024-01-30T07:05:17;100358.03;;;-2.53;53.10
41040;BME280;48586;50.122;18.972;2024-01-30T07:08:25;100339.06;;;-2.73;53.40
41040;BME280;48586;50.122;18.972;2024-01-30T07:11:31;100362.59;;;-2.65;53.55
41040;BME280;48586;50.122;18.972;2024-01-30T07:14:37;100356.47;;;-2.66;53.92
41040;BME280;48586;50.122;18.972;2024-01-30T07:17:46;100358.19;;;-2.65;53.79
41040;BME280;48586;50.122;18.972;2024-01-30T07:20:52;100356.53;;;-2.72;53.81
41040;BME280;48586;50.122;18.972;2024-01-30T07:23:59;100341.72;;;-2.75;54.49
41040;BME280;48586;50.122;18.972;2024-01-30T07:27:05;100366.78;;;-2.54;54.57
41040;BME280;48586;50.122;18.972;2024-01-30T07:30:11;100365.72;;;-2.41;54.86
41040;BME280;48586;50.122;18.972;2024-01-30T07:33:23;100368.16;;;-2.28;54.72
41040;BME280;48586;50.122;18.972;2024-01-30T07:36:29;100374.94;;;-2.15;54.67
41040;BME280;48586;50.122;18.972;2024-01-30T07:39:36;100367.72;;;-2.02;54.59
41040;BME280;48586;50.122;18.972;2024-01-30T07:42:43;100347.56;;;-1.99;54.61
41040;BME280;48586;50.122;18.972;2024-01-30T07:45:50;100355.00;;;-1.74;54.37
41040;BME280;48586;50.122;18.972;2024-01-30T07:48:59;100367.84;;;-1.58;54.09
41040;BME280;48586;50.122;18.972;2024-01-30T07:52:05;100361.56;;;-1.49;54.03
41040;BME280;48586;50.122;18.972;2024-01-30T07:55:11;100339.53;;;-1.42;53.81
41040;BME280;48586;50.122;18.972;2024-01-30T07:58:17;100357.44;;;-1.17;53.84
41040;BME280;48586;50.122;18.972;2024-01-30T08:01:24;100353.63;;;-1.01;53.71
41040;BME280;48586;50.122;18.972;2024-01-30T08:04:33;100361.41;;;-0.56;53.97
41040;BME280;48586;50.122;18.972;2024-01-30T08:07:39;100352.34;;;-0.06;52.71
41040;BME280;48586;50.122;18.972;2024-01-30T08:10:46;100351.69;;;0.21;51.57
41040;BME280;48586;50.122;18.972;2024-01-30T08:13:51;100365.22;;;0.40;49.80
41040;BME280;48586;50.122;18.972;2024-01-30T08:16:58;100353.56;;;0.49;49.73
41040;BME280;48586;50.122;18.972;2024-01-30T08:20:07;100362.00;;;0.62;49.50
41040;BME280;48586;50.122;18.972;2024-01-30T08:23:15;100351.31;;;0.68;49.47
41040;BME280;48586;50.122;18.972;2024-01-30T08:26:21;100350.28;;;0.73;49.46
41040;BME280;48586;50.122;18.972;2024-01-30T08:29:28;100354.44;;;0.82;49.80
41040;BME280;48586;50.122;18.972;2024-01-30T08:32:34;100359.69;;;0.82;49.48
41040;BME280;48586;50.122;18.972;2024-01-30T08:35:43;100363.50;;;0.72;48.86
41040;BME280;48586;50.122;18.972;2024-01-30T08:38:48;100364.50;;;0.68;49.08
41040;BME280;48586;50.122;18.972;2024-01-30T08:41:54;100353.88;;;0.71;49.47
41040;BME280;48586;50.122;18.972;2024-01-30T08:45:00;100351.13;;;0.74;49.57
41040;BME280;48586;50.122;18.972;2024-01-30T08:48:07;100364.03;;;0.85;48.88
41040;BME280;48586;50.122;18.972;2024-01-30T08:51:15;100364.94;;;0.84;48.76
41040;BME280;48586;50.122;18.972;2024-01-30T08:54:21;100349.09;;;0.85;49.04
41040;BME280;48586;50.122;18.972;2024-01-30T08:57:28;100367.97;;;1.02;48.13
41040;BME280;48586;50.122;18.972;2024-01-30T09:00:34;100363.44;;;1.07;47.80
41040;BME280;48586;50.122;18.972;2024-01-30T09:03:40;100363.13;;;1.17;47.81
41040;BME280;48586;50.122;18.972;2024-01-30T09:06:52;100357.69;;;1.23;48.30
41040;BME280;48586;50.122;18.972;2024-01-30T09:09:57;100348.88;;;1.24;46.99
41040;BME280;48586;50.122;18.972;2024-01-30T09:13:04;100359.78;;;1.41;46.79
41040;BME280;48586;50.122;18.972;2024-01-30T09:16:09;100357.53;;;1.57;46.41
41040;BME280;48586;50.122;18.972;2024-01-30T09:19:15;100357.25;;;1.66;46.21
41040;BME280;48586;50.122;18.972;2024-01-30T09:22:24;100354.28;;;1.77;45.74
41040;BME280;48586;50.122;18.972;2024-01-30T09:25:30;100354.50;;;1.97;45.84
41040;BME280;48586;50.122;18.972;2024-01-30T09:28:36;100358.38;;;2.13;45.04
41040;BME280;48586;50.122;18.972;2024-01-30T09:31:44;100355.94;;;2.34;45.02
41040;BME280;48586;50.122;18.972;2024-01-30T09:34:50;100348.63;;;2.40;44.12
41040;BME280;48586;50.122;18.972;2024-01-30T09:38:00;100341.19;;;2.51;43.82
41040;BME280;48586;50.122;18.972;2024-01-30T09:41:09;100350.41;;;2.66;43.53
41040;BME280;48586;50.122;18.972;2024-01-30T09:44:17;100350.22;;;2.71;43.05
41040;BME280;48586;50.122;18.972;2024-01-30T09:47:25;100342.44;;;2.91;43.89
41040;BME280;48586;50.122;18.972;2024-01-30T09:50:32;100332.88;;;3.10;42.82
41040;BME280;48586;50.122;18.972;2024-01-30T09:53:44;100340.44;;;3.21;42.09
41040;BME280;48586;50.122;18.972;2024-01-30T09:56:51;100330.38;;;3.29;41.63
41040;BME280;48586;50.122;18.972;2024-01-30T09:59:57;100336.13;;;3.42;41.97
41040;BME280;48586;50.122;18.972;2024-01-30T10:03:04;100327.94;;;3.48;41.82
41040;BME280;48586;50.122;18.972;2024-01-30T10:06:10;100320.31;;;3.62;40.84
41040;BME280;48586;50.122;18.972;2024-01-30T10:09:19;100304.28;;;3.65;41.40
41040;BME280;48586;50.122;18.972;2024-01-30T10:12:26;100319.06;;;3.93;41.05
41040;BME280;48586;50.122;18.972;2024-01-30T10:15:32;100320.47;;;4.02;40.50
41040;BME280;48586;50.122;18.972;2024-01-30T10:18:37;100321.50;;;4.19;40.22
41040;BME280;48586;50.122;18.972;2024-01-30T10:21:46;100334.06;;;4.36;39.63
41040;BME280;48586;50.122;18.972;2024-01-30T10:24:54;100322.13;;;4.46;39.22
41040;BME280;48586;50.122;18.972;2024-01-30T10:28:00;100304.66;;;4.61;39.07
41040;BME280;48586;50.122;18.972;2024-01-30T10:31:06;100307.16;;;4.84;39.07
41040;BME280;48586;50.122;18.972;2024-01-30T10:34:12;100302.72;;;5.04;38.43
41040;BME280;48586;50.122;18.972;2024-01-30T10:37:19;100301.06;;;5.20;37.69
41040;BME280;48586;50.122;18.972;2024-01-30T10:40:37;100293.22;;;5.37;37.93
41040;BME280;48586;50.122;18.972;2024-01-30T10:43:51;100286.09;;;5.57;37.52
41040;BME280;48586;50.122;18.972;2024-01-30T10:47:07;100290.03;;;5.67;37.14
41040;BME280;48586;50.122;18.972;2024-01-30T10:50:16;100293.63;;;5.66;36.26
41040;BME280;48586;50.122;18.972;2024-01-30T10:53:23;100282.59;;;5.73;36.26
41040;BME280;48586;50.122;18.972;2024-01-30T10:56:32;100271.50;;;5.65;36.18
41040;BME280;48586;50.122;18.972;2024-01-30T10:59:41;100272.84;;;5.74;36.11
41040;BME280;48586;50.122;18.972;2024-01-30T11:02:48;100271.50;;;5.83;36.24
41040;BME280;48586;50.122;18.972;2024-01-30T11:05:59;100271.78;;;5.95;35.41
41040;BME280;48586;50.122;18.972;2024-01-30T11:09:11;100242.91;;;5.88;35.30
41040;BME280;48586;50.122;18.972;2024-01-30T11:12:26;100258.88;;;6.22;34.87
41040;BME280;48586;50.122;18.972;2024-01-30T11:15:32;100247.97;;;6.44;34.49
41040;BME280;48586;50.122;18.972;2024-01-30T11:18:39;100257.75;;;6.61;34.91
41040;BME280;48586;50.122;18.972;2024-01-30T11:21:44;100235.88;;;6.72;34.46
41040;BME280;48586;50.122;18.972;2024-01-30T11:24:51;100248.66;;;7.14;34.32
41040;BME280;48586;50.122;18.972;2024-01-30T11:28:00;100243.75;;;7.38;33.92
41040;BME280;48586;50.122;18.972;2024-01-30T11:31:07;100243.81;;;7.68;33.24
41040;BME280;48586;50.122;18.972;2024-01-30T11:34:15;100243.31;;;7.77;32.62
41040;BME280;48586;50.122;18.972;2024-01-30T11:40:57;100237.34;;;7.88;32.43
41040;BME280;48586;50.122;18.972;2024-01-30T11:44:07;100230.19;;;7.88;32.40
41040;BME280;48586;50.122;18.972;2024-01-30T11:47:14;100225.13;;;7.84;32.26
41040;BME280;48586;50.122;18.972;2024-01-30T11:50:22;100233.81;;;7.87;32.62
41040;BME280;48586;50.122;18.972;2024-01-30T11:53:29;100222.22;;;8.02;32.81
41040;BME280;48586;50.122;18.972;2024-01-30T11:56:37;100219.56;;;8.17;31.92
41040;BME280;48586;50.122;18.972;2024-01-30T11:59:46;100219.25;;;8.23;31.42
41040;BME280;48586;50.122;18.972;2024-01-30T12:02:53;100215.38;;;8.43;31.14
41040;BME280;48586;50.122;18.972;2024-01-30T12:06:03;100213.06;;;8.37;30.89
41040;BME280;48586;50.122;18.972;2024-01-30T12:09:10;100202.50;;;8.49;30.89
41040;BME280;48586;50.122;18.972;2024-01-30T12:12:16;100196.88;;;8.82;30.73
41040;BME280;48586;50.122;18.972;2024-01-30T12:15:26;100182.22;;;9.16;30.56
41040;BME280;48586;50.122;18.972;2024-01-30T12:22:05;100168.53;;;9.75;29.76
41040;BME280;48586;50.122;18.972;2024-01-30T12:25:12;100178.00;;;10.06;28.65
41040;BME280;48586;50.122;18.972;2024-01-30T12:28:20;100159.28;;;10.06;28.38
41040;BME280;48586;50.122;18.972;2024-01-30T12:31:28;100169.34;;;10.02;28.45
41040;BME280;48586;50.122;18.972;2024-01-30T12:34:41;100164.00;;;10.15;29.61
41040;BME280;48586;50.122;18.972;2024-01-30T12:37:48;100164.53;;;10.46;28.77
41040;BME280;48586;50.122;18.972;2024-01-30T12:40:55;100162.06;;;10.68;28.32
41040;BME280;48586;50.122;18.972;2024-01-30T12:44:02;100153.47;;;10.88;26.97
41040;BME280;48586;50.122;18.972;2024-01-30T12:47:11;100155.47;;;10.98;27.11
41040;BME280;48586;50.122;18.972;2024-01-30T12:50:18;100149.44;;;11.31;28.01
41040;BME280;48586;50.122;18.972;2024-01-30T12:53:25;100150.69;;;11.62;26.67
41040;BME280;48586;50.122;18.972;2024-01-30T12:56:31;100150.16;;;11.57;26.34
41040;BME280;48586;50.122;18.972;2024-01-30T12:59:37;100134.56;;;11.51;26.61
41040;BME280;48586;50.122;18.972;2024-01-30T13:02:45;100145.56;;;11.35;26.34
41040;BME280;48586;50.122;18.972;2024-01-30T13:05:54;100141.75;;;11.50;26.62
41040;BME280;48586;50.122;18.972;2024-01-30T13:09:03;100150.53;;;11.76;25.86
41040;BME280;48586;50.122;18.972;2024-01-30T13:12:10;100136.25;;;11.75;25.77
41040;BME280;48586;50.122;18.972;2024-01-30T13:15:16;100140.28;;;11.70;26.10
41040;BME280;48586;50.122;18.972;2024-01-30T13:18:25;100138.25;;;11.61;26.41
41040;BME280;48586;50.122;18.972;2024-01-30T13:21:31;100136.19;;;11.64;26.06
41040;BME280;48586;50.122;18.972;2024-01-30T13:24:38;100142.31;;;11.42;26.17
41040;BME280;48586;50.122;18.972;2024-01-30T13:27:46;100138.41;;;11.46;27.68
41040;BME280;48586;50.122;18.972;2024-01-30T13:30:53;100146.69;;;11.43;26.24
41040;BME280;48586;50.122;18.972;2024-01-30T13:34:01;100138.56;;;11.21;26.66
41040;BME280;48586;50.122;18.972;2024-01-30T13:37:09;100134.97;;;11.09;27.09
41040;BME280;48586;50.122;18.972;2024-01-30T13:40:14;100139.09;;;11.13;27.12
41040;BME280;48586;50.122;18.972;2024-01-30T13:43:21;100136.28;;;10.91;27.59
41040;BME280;48586;50.122;18.972;2024-01-30T13:46:26;100140.38;;;11.20;26.90
41040;BME280;48586;50.122;18.972;2024-01-30T13:49:36;100138.38;;;11.35;27.12
41040;BME280;48586;50.122;18.972;2024-01-30T13:52:41;100137.69;;;11.20;26.95
41040;BME280;48586;50.122;18.972;2024-01-30T13:55:46;100132.56;;;11.17;27.22
41040;BME280;48586;50.122;18.972;2024-01-30T13:58:51;100131.84;;;11.03;27.43
41040;BME280;48586;50.122;18.972;2024-01-30T14:01:59;100119.72;;;11.10;27.97
41040;BME280;48586;50.122;18.972;2024-01-30T14:05:08;100125.03;;;10.99;27.50
41040;BME280;48586;50.122;18.972;2024-01-30T14:08:15;100128.50;;;11.12;28.22
41040;BME280;48586;50.122;18.972;2024-01-30T14:11:24;100125.38;;;11.42;28.09
41040;BME280;48586;50.122;18.972;2024-01-30T14:14:31;100120.72;;;11.68;27.49
41040;BME280;48586;50.122;18.972;2024-01-30T14:17:37;100126.50;;;11.74;26.71
41040;BME280;48586;50.122;18.972;2024-01-30T14:20:47;100115.81;;;11.62;27.33
41040;BME280;48586;50.122;18.972;2024-01-30T14:23:53;100119.22;;;11.64;27.17
41040;BME280;48586;50.122;18.972;2024-01-30T14:26:59;100124.31;;;11.56;27.19
41040;BME280;48586;50.122;18.972;2024-01-30T14:30:07;100127.53;;;11.61;27.62
41040;BME280;48586;50.122;18.972;2024-01-30T14:33:17;100123.69;;;11.76;27.69
41040;BME280;48586;50.122;18.972;2024-01-30T14:36:25;100124.59;;;11.64;27.72
41040;BME280;48586;50.122;18.972;2024-01-30T14:39:32;100125.38;;;11.42;27.62
41040;BME280;48586;50.122;18.972;2024-01-30T14:42:38;100119.38;;;11.14;28.00
41040;BME280;48586;50.122;18.972;2024-01-30T14:45:44;100124.84;;;10.89;28.54
41040;BME280;48586;50.122;18.972;2024-01-30T14:48:52;100118.25;;;10.69;28.98
41040;BME280;48586;50.122;18.972;2024-01-30T14:52:03;100125.97;;;10.48;29.17
41040;BME280;48586;50.122;18.972;2024-01-30T14:55:10;100122.47;;;10.22;29.83
41040;BME280;48586;50.122;18.972;2024-01-30T14:58:16;100120.09;;;9.92;29.87
41040;BME280;48586;50.122;18.972;2024-01-30T15:01:21;100125.59;;;9.51;30.48
41040;BME280;48586;50.122;18.972;2024-01-30T15:04:27;100124.31;;;9.30;31.03
41040;BME280;48586;50.122;18.972;2024-01-30T15:07:36;100130.72;;;9.00;31.46
41040;BME280;48586;50.122;18.972;2024-01-30T15:10:42;100127.22;;;8.71;31.77
41040;BME280;48586;50.122;18.972;2024-01-30T15:13:47;100123.75;;;8.56;32.12
41040;BME280;48586;50.122;18.972;2024-01-30T15:16:53;100120.13;;;8.29;32.67
41040;BME280;48586;50.122;18.972;2024-01-30T15:19:58;100120.47;;;7.94;33.17
41040;BME280;48586;50.122;18.972;2024-01-30T15:23:06;100130.25;;;7.50;33.87
41040;BME280;48586;50.122;18.972;2024-01-30T15:26:10;100122.75;;;7.10;34.76
41040;BME280;48586;50.122;18.972;2024-01-30T15:29:16;100124.28;;;6.67;35.42
41040;BME280;48586;50.122;18.972;2024-01-30T15:32:22;100127.00;;;6.34;35.99
41040;BME280;48586;50.122;18.972;2024-01-30T15:35:29;100124.81;;;6.09;36.74
41040;BME280;48586;50.122;18.972;2024-01-30T15:38:37;100121.56;;;5.87;37.24
41040;BME280;48586;50.122;18.972;2024-01-30T15:41:44;100123.66;;;5.63;37.67
41040;BME280;48586;50.122;18.972;2024-01-30T15:44:50;100125.25;;;5.50;38.31
41040;BME280;48586;50.122;18.972;2024-01-30T15:47:57;100123.00;;;5.42;38.44
41040;BME280;48586;50.122;18.972;2024-01-30T15:51:03;100121.56;;;5.35;38.44
41040;BME280;48586;50.122;18.972;2024-01-30T15:54:12;100124.59;;;5.27;38.70
41040;BME280;48586;50.122;18.972;2024-01-30T15:57:18;100131.19;;;5.19;39.13
41040;BME280;48586;50.122;18.972;2024-01-30T16:00:25;100132.81;;;5.04;39.46
41040;BME280;48586;50.122;18.972;2024-01-30T16:03:30;100132.56;;;4.91;39.50
41040;BME280;48586;50.122;18.972;2024-01-30T16:06:36;100129.69;;;4.77;39.74
41040;BME280;48586;50.122;18.972;2024-01-30T16:09:44;100130.25;;;4.65;40.13
41040;BME280;48586;50.122;18.972;2024-01-30T16:12:51;100137.94;;;4.52;40.49
41040;BME280;48586;50.122;18.972;2024-01-30T16:15:57;100135.84;;;4.40;40.89